Time;durP1;ratioP1;P1;durP2;ratioP2;P2;SDS_P1;SDS_P2;PMS_P1;PMS_P2;Temp;Humidity;BMP_temperature;BMP_pressure;BME280_temperature;BME280_humidity;BME280_pressure;Samples;Min_cycle;Max_cycle;Signal;HPM_P1;HPM_P2
2022/08/09 00:01:24;;;;;;;4.90;3.13;;;;;;;15.56;84.88;102807.47;5008298;28;20293;-70
2022/08/09 00:03:50;;;;;;;3.67;2.97;;;;;;;15.45;85.01;102801.97;5009643;28;20207;-70
2022/08/09 00:06:15;;;;;;;4.70;2.90;;;;;;;15.46;84.79;102806.28;5009149;28;20195;-69
2022/08/09 00:08:42;;;;;;;5.07;2.77;;;;;;;15.44;84.97;102802.78;5008398;28;20226;-70
2022/08/09 00:11:07;;;;;;;3.63;3.00;;;;;;;15.42;85.38;102798.41;5009467;28;20794;-70
2022/08/09 00:13:32;;;;;;;7.50;2.83;;;;;;;15.37;85.12;102806.00;5010100;28;20191;-69
2022/08/09 00:15:58;;;;;;;3.67;2.93;;;;;;;15.33;84.72;102803.25;5009731;28;20187;-69
2022/08/09 00:18:24;;;;;;;3.03;2.60;;;;;;;15.33;84.43;102804.09;5009460;28;20222;-70
2022/08/09 00:20:49;;;;;;;4.40;2.40;;;;;;;15.28;84.75;102813.41;5007097;28;20223;-70
2022/08/09 00:23:14;;;;;;;3.00;2.60;;;;;;;15.26;84.15;102816.78;5007809;28;20240;-70
2022/08/09 00:25:40;;;;;;;2.90;2.40;;;;;;;15.29;84.67;102807.41;5009298;28;20281;-70
2022/08/09 00:28:05;;;;;;;2.83;2.30;;;;;;;15.31;84.56;102812.63;5007816;28;20194;-70
2022/08/09 00:30:32;;;;;;;3.70;2.57;;;;;;;15.20;85.06;102809.69;5009330;28;20179;-69
2022/08/09 00:32:58;;;;;;;3.57;2.77;;;;;;;15.22;85.79;102814.91;5009198;28;20776;-70
2022/08/09 00:35:24;;;;;;;4.63;2.77;;;;;;;15.19;86.11;102813.13;5009284;28;20354;-69
2022/08/09 00:37:50;;;;;;;5.13;2.93;;;;;;;15.06;86.46;102816.13;5008996;28;20195;-69
2022/08/09 00:40:15;;;;;;;6.40;3.00;;;;;;;15.09;86.38;102816.22;5009005;28;20270;-70
2022/08/09 00:42:41;;;;;;;4.13;2.80;;;;;;;15.06;86.15;102808.38;5009155;28;20306;-70
2022/08/09 00:45:07;;;;;;;3.00;2.57;;;;;;;15.07;86.74;102815.31;5009166;28;20199;-69
2022/08/09 00:47:32;;;;;;;5.57;2.70;;;;;;;15.01;86.43;102815.09;5008936;28;20195;-69
2022/08/09 00:49:58;;;;;;;4.60;3.17;;;;;;;15.02;86.98;102818.56;5009076;28;20183;-70
2022/08/09 00:52:25;;;;;;;3.30;2.57;;;;;;;14.99;86.77;102815.88;5008975;28;20203;-70
2022/08/09 00:54:52;;;;;;;3.33;2.53;;;;;;;14.93;86.48;102820.84;5009007;28;20187;-69
2022/08/09 00:57:18;;;;;;;3.83;2.50;;;;;;;14.90;85.92;102815.56;5011635;28;20191;-69
2022/08/09 00:59:45;;;;;;;4.57;2.80;;;;;;;14.87;86.62;102815.50;5012574;28;20194;-69
2022/08/09 01:02:11;;;;;;;3.47;2.70;;;;;;;14.84;86.43;102825.69;5012457;28;20222;-70
2022/08/09 01:04:47;;;;;;;4.00;2.50;;;;;;;14.82;86.65;102814.47;5012574;28;20241;-69
2022/08/09 01:07:41;;;;;;;6.07;3.17;;;;;;;14.82;86.68;102814.47;5011123;28;20237;-70
2022/08/09 01:10:12;;;;;;;2.53;2.20;;;;;;;14.76;86.81;102820.28;5012398;28;20175;-69
2022/08/09 01:12:49;;;;;;;5.20;2.47;;;;;;;14.73;86.71;102812.44;5011226;28;20210;-69
2022/08/09 01:15:23;;;;;;;3.30;2.70;;;;;;;14.74;86.33;102811.59;5012252;28;20210;-69
2022/08/09 01:17:54;;;;;;;3.07;2.83;;;;;;;14.69;87.01;102807.13;5012032;28;20215;-69
2022/08/09 01:21:01;;;;;;;2.83;2.63;;;;;;;14.69;86.34;102813.13;5012190;28;20167;-70
2022/08/09 01:23:47;;;;;;;3.90;2.87;;;;;;;14.67;86.65;102809.66;4997387;28;20301;-69
2022/08/09 01:26:50;;;;;;;3.53;2.73;;;;;;;14.62;86.97;102813.78;5011918;28;20179;-68
2022/08/09 01:29:17;;;;;;;3.70;2.57;;;;;;;14.52;87.50;102818.53;5011985;28;20254;-69
2022/08/09 01:31:45;;;;;;;3.77;2.87;;;;;;;14.51;86.97;102816.78;5011978;28;20199;-70
2022/08/09 01:34:17;;;;;;;3.30;2.97;;;;;;;14.50;87.26;102815.06;5011871;28;20199;-70
2022/08/09 01:36:44;;;;;;;3.67;3.03;;;;;;;14.43;86.98;102818.22;5011658;28;20202;-69
2022/08/09 01:39:10;;;;;;;3.27;2.40;;;;;;;14.41;87.48;102817.31;5011804;28;20183;-70
2022/08/09 01:41:40;;;;;;;4.23;2.50;;;;;;;14.38;87.49;102815.50;5010407;28;20226;-70
2022/08/09 01:44:08;;;;;;;3.17;2.70;;;;;;;14.36;87.61;102816.25;5011761;28;20245;-70
2022/08/09 01:46:37;;;;;;;3.50;3.20;;;;;;;14.33;87.33;102814.47;5011464;28;20732;-70
2022/08/09 01:49:10;;;;;;;4.77;2.67;;;;;;;14.32;87.95;102817.84;5011616;28;20183;-69
2022/08/09 01:51:38;;;;;;;5.27;2.73;;;;;;;14.32;87.44;102817.84;5011487;28;20225;-69
2022/08/09 01:54:05;;;;;;;3.40;2.57;;;;;;;14.22;87.33;102825.19;5011521;28;20290;-69
2022/08/09 01:56:34;;;;;;;4.77;3.20;;;;;;;14.24;86.90;102813.25;5011392;28;20201;-69
2022/08/09 01:59:04;;;;;;;3.73;2.70;;;;;;;14.17;87.38;102818.94;5011349;28;20187;-69
2022/08/09 02:01:34;;;;;;;3.27;2.97;;;;;;;14.15;87.45;102813.75;5011288;28;20281;-69
2022/08/09 02:04:01;;;;;;;3.40;2.77;;;;;;;14.08;87.68;102809.19;5011282;28;20306;-69
2022/08/09 02:09:15;;;;;;;5.33;3.43;;;;;;;14.12;87.27;102818.78;5011227;28;20203;-70
2022/08/09 02:11:40;;;;;;;4.00;2.90;;;;;;;14.11;86.91;102824.78;5011136;28;20199;-69
2022/08/09 02:14:07;;;;;;;3.17;2.80;;;;;;;14.06;87.35;102822.84;5004277;28;20562;-70
2022/08/09 02:16:38;;;;;;;4.30;2.97;;;;;;;13.98;88.07;102824.25;5011082;28;20266;-69
2022/08/09 02:19:04;;;;;;;4.30;2.80;;;;;;;14.01;87.65;102826.94;5010984;28;20203;-70
2022/08/09 02:21:43;;;;;;;3.53;3.03;;;;;;;13.97;87.96;102832.78;5010184;28;20211;-69
2022/08/09 02:24:12;;;;;;;3.50;2.83;;;;;;;13.92;87.72;102827.50;5011310;28;20206;-70
2022/08/09 02:26:40;;;;;;;3.13;2.63;;;;;;;13.94;87.58;102820.69;5010968;28;20222;-70
2022/08/09 02:29:15;;;;;;;5.50;3.03;;;;;;;13.91;87.41;102828.28;5011100;28;20571;-71
2022/08/09 02:31:44;;;;;;;4.13;2.77;;;;;;;13.83;87.99;102828.81;5010997;28;20201;-69
2022/08/09 02:34:13;;;;;;;3.63;2.97;;;;;;;13.81;88.31;102815.88;5010856;28;20209;-69
2022/08/09 02:36:47;;;;;;;3.10;2.80;;;;;;;13.76;87.93;102821.69;5010583;28;20664;-69
2022/08/09 02:39:19;;;;;;;3.80;3.20;;;;;;;13.71;88.65;102820.66;5010716;28;20186;-70
2022/08/09 02:41:49;;;;;;;3.43;3.13;;;;;;;13.71;88.46;102826.66;5010573;28;20230;-69
2022/08/09 02:44:19;;;;;;;3.40;2.93;;;;;;;13.68;88.16;102823.09;5010631;28;20719;-69
2022/08/09 02:46:49;;;;;;;3.27;2.97;;;;;;;13.69;88.35;102820.59;5009205;28;20229;-70
2022/08/09 02:49:18;;;;;;;2.90;2.67;;;;;;;13.68;87.92;102823.09;5010997;28;20186;-70
2022/08/09 02:51:47;;;;;;;4.00;2.90;;;;;;;13.67;88.42;102817.06;5010406;28;20207;-69
2022/08/09 02:54:15;;;;;;;3.97;3.27;;;;;;;13.54;88.46;102824.25;5010453;28;20696;-69
2022/08/09 02:56:46;;;;;;;3.60;3.17;;;;;;;13.50;88.25;102831.00;5010225;28;20183;-69
2022/08/09 02:59:14;;;;;;;4.37;3.13;;;;;;;13.47;88.43;102819.66;5010215;28;20213;-69
2022/08/09 03:01:41;;;;;;;3.40;3.10;;;;;;;13.45;88.64;102822.19;5010138;28;20257;-69
2022/08/09 03:04:08;;;;;;;3.93;2.70;;;;;;;13.44;88.82;102819.56;5010201;28;20564;-69
2022/08/09 03:06:35;;;;;;;3.47;3.17;;;;;;;13.45;88.40;102819.59;5009917;28;20499;-70
2022/08/09 03:09:02;;;;;;;2.87;2.60;;;;;;;13.39;88.69;102819.38;5010158;28;20183;-69
2022/08/09 03:11:29;;;;;;;3.90;2.90;;;;;;;13.35;88.77;102822.63;5010151;28;20621;-69
2022/08/09 03:13:56;;;;;;;3.70;3.20;;;;;;;13.37;89.17;102830.44;5010228;28;20186;-69
2022/08/09 03:16:23;;;;;;;4.17;3.07;;;;;;;13.38;88.67;102824.44;5009893;28;20187;-69
2022/08/09 03:18:50;;;;;;;4.00;3.10;;;;;;;13.27;88.58;102823.16;5009206;28;20630;-69
2022/08/09 03:21:17;;;;;;;4.43;3.43;;;;;;;13.29;88.71;102831.81;5009086;28;20202;-70
2022/08/09 03:23:45;;;;;;;4.50;3.30;;;;;;;13.29;88.94;102824.97;5008519;28;20262;-70
2022/08/09 03:26:15;;;;;;;4.07;3.00;;;;;;;13.18;89.28;102823.69;5009997;28;20596;-69
2022/08/09 03:28:42;;;;;;;4.73;2.97;;;;;;;13.24;89.00;102821.34;5009922;28;21006;-69
2022/08/09 03:31:09;;;;;;;4.27;3.13;;;;;;;13.26;88.68;102821.41;5010087;28;20181;-69
2022/08/09 03:33:36;;;;;;;4.10;3.07;;;;;;;13.26;88.87;102821.41;5010062;28;20187;-69
2022/08/09 03:36:03;;;;;;;3.40;3.10;;;;;;;13.24;89.22;102828.16;5009775;28;20258;-70
2022/08/09 03:38:28;;;;;;;3.80;3.20;;;;;;;13.18;89.03;102828.81;5009666;28;20226;-69
2022/08/09 03:40:54;;;;;;;4.73;2.90;;;;;;;13.18;89.00;102830.50;5009908;28;20249;-69
2022/08/09 03:43:20;;;;;;;4.27;3.20;;;;;;;13.03;89.61;102833.31;5009767;28;20210;-70
2022/08/09 03:45:45;;;;;;;4.30;3.20;;;;;;;13.07;89.47;102840.34;4990058;28;20187;-69
2022/08/09 03:48:11;;;;;;;5.43;3.40;;;;;;;13.10;89.33;102837.91;4993333;28;20674;-69
2022/08/09 03:50:39;;;;;;;3.50;2.97;;;;;;;13.08;89.24;102842.09;5001721;28;20768;-69
2022/08/09 03:53:08;;;;;;;4.83;3.73;;;;;;;13.10;89.41;102837.91;5009356;28;20233;-69
2022/08/09 03:55:34;;;;;;;6.93;5.73;;;;;;;13.05;89.83;102831.72;4990083;28;20211;-69
2022/08/09 03:58:00;;;;;;;6.60;5.00;;;;;;;13.03;90.34;102835.88;4988635;28;20196;-70
2022/08/09 04:00:26;;;;;;;5.90;4.23;;;;;;;13.00;90.88;102840.03;4989918;28;20327;-69
2022/08/09 04:02:54;;;;;;;5.10;4.20;;;;;;;12.95;91.02;102837.25;4989861;28;20693;-69
2022/08/09 04:05:20;;;;;;;7.13;4.77;;;;;;;12.90;90.52;102833.63;4990320;28;20195;-69
2022/08/09 04:07:46;;;;;;;7.87;4.37;;;;;;;12.95;90.04;102837.25;5009304;28;20176;-70
2022/08/09 04:10:13;;;;;;;6.57;4.20;;;;;;;12.88;90.52;102838.69;5009544;28;20179;-70
2022/08/09 04:12:47;;;;;;;7.00;5.23;;;;;;;12.93;90.62;102839.75;5009463;28;20217;-70
2022/08/09 04:15:14;;;;;;;7.60;5.03;;;;;;;13.01;90.93;102846.94;5009282;28;20286;-70
2022/08/09 04:17:41;;;;;;;5.50;4.50;;;;;;;13.06;91.62;102848.00;5009049;28;20187;-70
2022/08/09 04:20:08;;;;;;;5.03;4.27;;;;;;;13.08;91.43;102849.81;5009505;28;20241;-68
2022/08/09 04:22:34;;;;;;;6.03;4.97;;;;;;;13.10;92.64;102850.78;5007727;28;20227;-70
2022/08/09 04:25:00;;;;;;;5.63;4.73;;;;;;;13.16;92.61;102843.31;5009399;28;20202;-69
2022/08/09 04:27:25;;;;;;;5.50;4.53;;;;;;;13.20;92.91;102845.19;5009231;28;20191;-69
2022/08/09 04:29:51;;;;;;;8.70;5.37;;;;;;;13.24;93.06;102851.31;5009457;28;20282;-69
2022/08/09 04:32:16;;;;;;;5.20;4.70;;;;;;;13.26;93.56;102842.00;4995099;28;20209;-69
2022/08/09 04:34:42;;;;;;;6.60;5.13;;;;;;;13.36;94.54;102849.25;5004373;28;21018;-69
2022/08/09 04:37:07;;;;;;;5.70;4.70;;;;;;;13.41;94.07;102851.22;4991307;28;20191;-70
2022/08/09 04:39:33;;;;;;;7.30;4.67;;;;;;;13.44;94.71;102859.03;5012675;28;20222;-69
2022/08/09 04:41:58;;;;;;;5.50;5.00;;;;;;;13.52;94.45;102849.03;5012931;28;20223;-69
2022/08/09 04:44:24;;;;;;;7.40;4.73;;;;;;;13.56;94.93;102856.06;5013186;28;20676;-70
2022/08/09 04:46:50;;;;;;;5.27;4.77;;;;;;;13.58;95.11;102859.59;5011441;28;20195;-69
2022/08/09 04:49:16;;;;;;;6.37;5.10;;;;;;;13.62;95.01;102848.63;5005812;28;20198;-69
2022/08/09 04:51:41;;;;;;;5.80;5.00;;;;;;;13.68;95.35;102854.00;5012683;28;20207;-69
2022/08/09 04:54:07;;;;;;;6.57;4.83;;;;;;;13.75;94.61;102850.81;5012696;28;20183;-70
2022/08/09 04:56:32;;;;;;;6.17;5.00;;;;;;;13.83;94.61;102846.84;5012511;28;20190;-69
2022/08/09 04:58:58;;;;;;;5.63;4.40;;;;;;;13.89;94.33;102853.13;5008864;28;20644;-69
2022/08/09 05:01:23;;;;;;;6.57;4.67;;;;;;;13.96;94.27;102851.66;5012226;28;20300;-69
2022/08/09 05:03:49;;;;;;;5.47;4.60;;;;;;;14.04;93.59;102855.41;5012609;28;20207;-69
2022/08/09 05:06:14;;;;;;;5.07;4.60;;;;;;;14.14;93.22;102853.19;5012293;28;20233;-70
2022/08/09 05:08:40;;;;;;;4.93;4.37;;;;;;;14.22;93.13;102858.72;5012310;28;20190;-70
2022/08/09 05:11:06;;;;;;;4.83;4.20;;;;;;;14.29;92.85;102858.09;5012507;28;21028;-70
2022/08/09 05:13:32;;;;;;;7.73;4.17;;;;;;;14.39;92.32;102852.44;5012273;28;20209;-70
2022/08/09 05:15:57;;;;;;;5.50;4.77;;;;;;;14.49;93.31;102860.56;5012200;28;20180;-69
2022/08/09 05:18:28;;;;;;;4.77;4.17;;;;;;;14.57;92.35;102856.56;5011975;28;20191;-70
2022/08/09 05:20:55;;;;;;;4.87;4.37;;;;;;;14.65;92.09;102862.84;5011979;28;20234;-70
2022/08/09 05:23:21;;;;;;;7.17;3.77;;;;;;;14.76;91.96;102864.13;5011963;28;20215;-70
2022/08/09 05:25:47;;;;;;;5.67;4.20;;;;;;;14.90;91.64;102874.91;5012145;28;20218;-70
2022/08/09 05:28:12;;;;;;;6.73;4.43;;;;;;;15.01;91.57;102871.88;5011843;28;20712;-70
2022/08/09 05:30:38;;;;;;;6.93;4.37;;;;;;;15.14;91.16;102880.91;5011960;28;20819;-69
2022/08/09 05:33:03;;;;;;;6.23;4.43;;;;;;;15.28;90.81;102880.53;5011928;28;20211;-70
2022/08/09 05:35:29;;;;;;;6.50;4.00;;;;;;;15.36;89.74;102881.69;5011921;28;20191;-69
2022/08/09 05:37:55;;;;;;;6.13;4.00;;;;;;;15.51;89.16;102886.50;5011705;28;20206;-70
2022/08/09 05:40:22;;;;;;;4.77;4.23;;;;;;;15.63;88.35;102890.34;5011587;28;20191;-69
2022/08/09 05:42:48;;;;;;;5.07;4.03;;;;;;;15.72;88.16;102887.16;5002543;28;20212;-68
2022/08/09 05:45:14;;;;;;;4.87;3.77;;;;;;;15.86;88.33;102891.03;4992089;28;20607;-69
2022/08/09 05:47:39;;;;;;;6.60;4.33;;;;;;;15.97;87.27;102894.84;4992023;28;20250;-69
2022/08/09 05:50:05;;;;;;;5.30;3.97;;;;;;;16.11;85.66;102891.81;5000743;28;20214;-70
2022/08/09 05:52:31;;;;;;;5.13;3.70;;;;;;;16.15;85.64;102897.97;5011605;28;20199;-70
2022/08/09 05:54:56;;;;;;;6.23;3.50;;;;;;;16.28;84.37;102892.31;5011931;28;20191;-69
2022/08/09 05:57:21;;;;;;;4.03;3.33;;;;;;;16.46;84.29;102890.31;5011547;28;20183;-69
2022/08/09 05:59:47;;;;;;;3.70;3.30;;;;;;;16.54;83.63;102896.56;5008339;28;20852;-68
2022/08/09 06:02:12;;;;;;;3.97;3.53;;;;;;;16.65;83.49;102898.63;5009667;28;20219;-70
2022/08/09 06:04:40;;;;;;;4.67;3.50;;;;;;;16.84;82.48;102894.81;5006516;28;20196;-70
2022/08/09 06:07:06;;;;;;;6.50;4.13;;;;;;;16.98;82.19;102891.75;5003764;28;20184;-70
2022/08/09 06:09:31;;;;;;;3.60;3.30;;;;;;;17.01;81.54;102890.97;4992019;28;20199;-69
2022/08/09 06:11:57;;;;;;;7.80;3.50;;;;;;;17.16;81.17;102900.00;4996220;28;20202;-69
2022/08/09 06:14:23;;;;;;;4.33;3.40;;;;;;;17.38;81.83;102897.13;5008290;28;20208;-68
2022/08/09 06:16:49;;;;;;;5.63;3.50;;;;;;;17.45;81.33;102903.38;5011069;28;20183;-69
2022/08/09 06:19:15;;;;;;;4.33;3.67;;;;;;;17.58;80.87;102902.78;5011174;28;20206;-68
2022/08/09 06:21:40;;;;;;;7.03;3.20;;;;;;;17.68;81.12;102899.63;5010870;28;20301;-69
2022/08/09 06:24:06;;;;;;;6.17;3.40;;;;;;;17.87;81.21;102906.97;5010936;28;20194;-69
2022/08/09 06:26:33;;;;;;;7.67;3.43;;;;;;;17.97;79.29;102901.13;5003491;28;20185;-69
2022/08/09 06:28:58;;;;;;;6.73;3.10;;;;;;;18.07;78.50;102908.28;5008242;28;20190;-70
2022/08/09 06:31:24;;;;;;;6.33;3.20;;;;;;;18.18;78.37;102907.66;5010842;28;20182;-69
2022/08/09 06:33:49;;;;;;;9.23;3.47;;;;;;;18.39;78.17;102908.16;5010869;28;20262;-69
2022/08/09 06:36:15;;;;;;;5.80;3.60;;;;;;;18.54;78.10;102910.19;5010736;28;20187;-69
2022/08/09 06:38:40;;;;;;;4.50;3.50;;;;;;;18.65;77.11;102909.53;4998275;28;20200;-68
2022/08/09 06:41:06;;;;;;;5.20;3.07;;;;;;;18.80;76.58;102909.81;5006398;28;20219;-69
2022/08/09 06:43:32;;;;;;;5.83;3.10;;;;;;;18.87;76.67;102911.72;4991139;28;20199;-69
2022/08/09 06:45:57;;;;;;;5.37;3.23;;;;;;;19.00;76.36;102905.91;4990091;28;20726;-69
2022/08/09 06:48:23;;;;;;;5.83;2.73;;;;;;;19.16;75.73;102912.25;5005755;28;20198;-69
2022/08/09 06:50:48;;;;;;;3.77;3.03;;;;;;;19.25;75.71;102915.91;5010521;28;20266;-69
2022/08/09 06:53:14;;;;;;;7.27;2.90;;;;;;;19.42;75.19;102906.66;4992788;28;20218;-69
2022/08/09 06:55:39;;;;;;;5.53;2.47;;;;;;;19.68;74.15;102913.16;5010565;28;20183;-69
2022/08/09 06:58:05;;;;;;;5.27;2.80;;;;;;;19.88;73.38;102914.34;5007912;28;20256;-70
2022/08/09 07:00:32;;;;;;;5.77;2.50;;;;;;;20.07;72.97;102915.44;5010392;28;20187;-69
2022/08/09 07:02:58;;;;;;;6.90;2.80;;;;;;;20.16;71.36;102916.50;5008714;28;20311;-70
2022/08/09 07:05:24;;;;;;;6.20;2.93;;;;;;;20.36;70.22;102916.75;5010395;28;20262;-69
2022/08/09 07:07:49;;;;;;;6.00;3.00;;;;;;;20.54;70.63;102911.78;5003835;28;20189;-71
2022/08/09 07:10:15;;;;;;;3.57;2.50;;;;;;;20.56;70.46;102903.13;5012023;28;20183;-71
2022/08/09 07:12:40;;;;;;;4.17;2.67;;;;;;;20.89;69.28;102913.03;5016636;28;20603;-69
2022/08/09 07:15:06;;;;;;;4.27;2.33;;;;;;;20.97;67.40;102906.22;5023416;28;20191;-71
2022/08/09 07:17:32;;;;;;;3.27;2.20;;;;;;;21.17;67.07;102912.47;5015613;28;20195;-72
2022/08/09 07:19:57;;;;;;;4.80;2.43;;;;;;;21.34;67.18;102909.19;5009216;28;20245;-71
2022/08/09 07:22:24;;;;;;;5.37;2.47;;;;;;;21.55;66.43;102904.13;5009169;28;20296;-72
2022/08/09 07:24:49;;;;;;;3.33;2.20;;;;;;;21.61;65.59;102906.75;5012088;28;20186;-71
2022/08/09 07:27:15;;;;;;;3.27;2.17;;;;;;;21.77;65.75;102895.63;5015158;28;20248;-71
2022/08/09 07:29:41;;;;;;;4.03;2.00;;;;;;;21.94;64.19;102903.53;5019275;28;20298;-71
2022/08/09 07:32:06;;;;;;;4.73;1.90;;;;;;;22.13;62.60;102905.38;5015571;28;20206;-70
2022/08/09 07:34:32;;;;;;;4.30;2.00;;;;;;;22.27;62.54;102914.16;5009498;28;20207;-69
2022/08/09 07:36:58;;;;;;;5.47;2.20;;;;;;;22.46;62.68;102907.31;5009574;28;20214;-69
2022/08/09 07:39:24;;;;;;;4.37;1.80;;;;;;;22.53;61.90;102909.06;5009679;28;20222;-70
2022/08/09 07:41:49;;;;;;;3.73;2.17;;;;;;;22.58;60.56;102900.41;5012932;28;20268;-70
2022/08/09 07:44:15;;;;;;;5.63;2.23;;;;;;;22.82;60.80;102907.41;5010512;28;20581;-71
2022/08/09 07:46:40;;;;;;;3.17;1.67;;;;;;;22.92;60.29;102904.81;5024428;28;20214;-71
2022/08/09 07:49:06;;;;;;;3.90;2.20;;;;;;;23.19;59.51;102899.66;5029123;28;20194;-71
2022/08/09 07:51:31;;;;;;;4.13;2.00;;;;;;;23.26;58.60;102904.03;5029116;28;20202;-70
2022/08/09 07:53:57;;;;;;;4.57;1.73;;;;;;;23.50;57.81;102908.38;5029124;28;20584;-70
2022/08/09 07:56:24;;;;;;;2.90;1.87;;;;;;;23.51;57.47;102910.13;5028893;28;20759;-70
2022/08/09 07:58:50;;;;;;;3.83;1.77;;;;;;;23.57;57.35;102915.38;5029176;28;20189;-71
2022/08/09 08:01:16;;;;;;;4.43;1.85;;;;;;;24.04;57.09;102914.41;4983838;28;20600;-70
2022/08/09 08:03:41;;;;;;;3.93;1.83;;;;;;;24.11;56.00;102916.16;5009131;28;20720;-71
2022/08/09 08:06:07;;;;;;;2.53;1.42;;;;;;;24.17;55.28;102918.75;5012095;28;20187;-71
2022/08/09 08:08:32;;;;;;;6.53;1.90;;;;;;;24.27;55.27;102919.59;5013278;28;20218;-71
2022/08/09 08:10:58;;;;;;;5.15;1.83;;;;;;;24.49;53.20;102910.78;5013069;28;20264;-70
2022/08/09 08:13:24;;;;;;;3.63;1.70;;;;;;;24.68;54.71;102913.31;5011769;28;20234;-71
2022/08/09 08:15:49;;;;;;;4.15;1.58;;;;;;;24.87;54.25;102919.34;5011779;28;20557;-71
2022/08/09 08:18:15;;;;;;;6.75;2.00;;;;;;;25.06;53.43;102916.59;5012105;28;20191;-70
2022/08/09 08:20:40;;;;;;;3.25;1.70;;;;;;;25.06;51.43;102910.47;5011764;28;20191;-71
2022/08/09 08:23:06;;;;;;;2.97;1.58;;;;;;;25.06;52.51;102906.09;5013013;28;20289;-71
2022/08/09 08:25:33;;;;;;;3.72;1.40;;;;;;;25.10;52.50;102910.41;5013175;28;20245;-71
2022/08/09 08:27:58;;;;;;;3.42;1.33;;;;;;;25.41;51.13;102908.50;5013052;28;20183;-71
2022/08/09 08:30:24;;;;;;;4.45;1.73;;;;;;;25.54;50.63;102899.59;5013184;28;20555;-71
2022/08/09 08:32:51;;;;;;;2.58;1.40;;;;;;;25.64;49.65;102906.53;5012792;28;20195;-70
2022/08/09 08:35:16;;;;;;;3.17;1.50;;;;;;;25.73;49.66;102901.16;5012737;28;20233;-72
2022/08/09 08:37:42;;;;;;;1.90;1.13;;;;;;;26.01;50.36;102902.66;5012570;28;20206;-70
2022/08/09 08:40:08;;;;;;;2.30;1.25;;;;;;;26.22;48.15;102905.03;5012688;28;20190;-69
2022/08/09 08:42:33;;;;;;;4.15;1.88;;;;;;;26.25;49.48;102907.63;5012380;28;20276;-71
2022/08/09 08:45:00;;;;;;;3.45;1.40;;;;;;;26.41;47.96;102910.03;4993343;28;20231;-72
2022/08/09 08:47:27;;;;;;;3.47;1.30;;;;;;;26.68;47.50;102900.94;4992799;28;20191;-72
2022/08/09 08:49:54;;;;;;;4.40;1.52;;;;;;;26.60;47.99;102913.31;4992980;28;20593;-71
2022/08/09 08:52:25;;;;;;;3.13;1.27;;;;;;;26.93;45.97;102915.50;4992840;28;20210;-71
2022/08/09 08:54:56;;;;;;;3.15;1.30;;;;;;;27.21;46.11;102912.44;4992853;28;20187;-71
2022/08/09 08:57:22;;;;;;;4.13;1.17;;;;;;;27.16;45.30;102910.72;4992637;28;20205;-72
2022/08/09 08:59:49;;;;;;;2.95;1.40;;;;;;;27.27;43.87;102916.72;4992836;28;20192;-72
2022/08/09 09:02:22;;;;;;;2.95;1.20;;;;;;;27.21;43.83;102914.22;4993511;28;20231;-71
2022/08/09 09:04:59;;;;;;;4.10;1.33;;;;;;;27.31;43.37;102915.78;4996853;28;20195;-71
2022/08/09 09:07:26;;;;;;;3.05;1.10;;;;;;;27.47;42.65;102914.63;4991449;28;20203;-71
2022/08/09 09:09:54;;;;;;;6.07;1.50;;;;;;;27.47;41.94;102912.00;4981104;28;20286;-72
2022/08/09 09:12:27;;;;;;;1.63;0.98;;;;;;;27.70;42.90;102907.19;4993017;28;20616;-72
2022/08/09 09:14:53;;;;;;;1.83;1.10;;;;;;;27.87;42.02;102911.25;4992781;28;20200;-71
2022/08/09 09:17:19;;;;;;;2.42;1.00;;;;;;;28.37;41.50;102905.84;4991323;28;20194;-72
2022/08/09 09:19:45;;;;;;;2.92;1.20;;;;;;;28.31;40.20;102911.25;4992755;28;20627;-72
2022/08/09 09:22:13;;;;;;;2.65;1.45;;;;;;;28.02;41.74;102911.00;4992512;28;20282;-74
2022/08/09 09:24:51;;;;;;;2.55;1.23;;;;;;;28.10;42.30;102918.75;4993016;28;20215;-73
2022/08/09 09:27:21;;;;;;;2.95;1.30;;;;;;;28.39;42.07;102909.38;4991452;28;20642;-71
2022/08/09 09:29:47;;;;;;;2.95;1.30;;;;;;;28.80;40.93;102914.63;4991441;28;20262;-72
2022/08/09 09:32:28;;;;;;;4.65;1.67;;;;;;;28.49;40.62;102910.91;4991324;28;20809;-72
2022/08/09 09:35:08;;;;;;;4.78;1.60;;;;;;;28.38;41.06;102901.47;4992821;28;20187;-70
2022/08/09 09:37:34;;;;;;;6.38;1.35;;;;;;;28.60;42.31;102897.50;4992629;28;20183;-70
2022/08/09 09:40:00;;;;;;;4.40;1.63;;;;;;;28.72;41.41;102898.09;4992548;28;20275;-71
2022/08/09 09:42:31;;;;;;;2.65;1.20;;;;;;;28.91;41.60;102907.31;4992305;28;20343;-71
2022/08/09 09:45:01;;;;;;;2.67;1.40;;;;;;;29.05;41.88;102897.31;4992156;28;20552;-70
2022/08/09 09:47:27;;;;;;;2.92;1.23;;;;;;;29.04;40.68;102902.63;4990430;28;20624;-72
2022/08/09 09:49:54;;;;;;;3.05;1.30;;;;;;;29.17;39.38;102907.59;4992111;28;20665;-72
2022/08/09 09:52:20;;;;;;;3.00;1.40;;;;;;;28.14;39.96;102916.00;4991816;28;20208;-72
2022/08/09 09:54:46;;;;;;;1.98;1.13;;;;;;;28.21;40.08;102906.22;4991805;28;20191;-72
2022/08/09 09:57:17;;;;;;;3.80;1.45;;;;;;;28.83;40.72;102909.25;4991805;28;20187;-72
2022/08/09 09:59:45;;;;;;;1.80;0.98;;;;;;;29.42;40.60;102902.53;4991924;28;20556;-71
2022/08/09 10:02:11;;;;;;;3.10;1.13;;;;;;;29.67;39.22;102906.31;4991740;28;20299;-73
2022/08/09 10:04:37;;;;;;;2.08;1.13;;;;;;;29.93;38.08;102898.56;4996490;28;20191;-72
2022/08/09 10:07:03;;;;;;;3.53;1.20;;;;;;;30.21;38.07;102896.91;4991413;28;20175;-73
2022/08/09 10:09:47;;;;;;;2.35;1.38;;;;;;;29.84;37.81;102898.81;4979480;28;20651;-72
2022/08/09 10:12:27;;;;;;;1.83;1.25;;;;;;;29.82;37.86;102898.84;4994001;28;20738;-70
2022/08/09 10:15:16;;;;;;;5.32;1.27;;;;;;;29.97;38.23;102894.91;4994465;28;20199;-74
2022/08/09 10:17:47;;;;;;;2.25;1.23;;;;;;;29.85;38.23;102895.25;4990485;28;20188;-73
2022/08/09 10:20:22;;;;;;;4.85;1.30;;;;;;;30.13;38.94;102894.44;4991108;28;20638;-74
2022/08/09 10:22:50;;;;;;;2.00;1.10;;;;;;;30.27;38.58;102888.78;4991087;28;20693;-73
2022/08/09 10:25:15;;;;;;;3.60;1.40;;;;;;;29.63;38.12;102887.06;4991280;28;20279;-73
2022/08/09 10:27:45;;;;;;;5.55;1.65;;;;;;;30.08;38.94;102898.97;4990554;28;20262;-74
2022/08/09 10:30:11;;;;;;;2.63;1.40;;;;;;;29.90;39.09;102883.66;4991149;28;20199;-73
2022/08/09 10:32:37;;;;;;;3.53;1.40;;;;;;;30.23;39.38;102888.91;4977684;28;20207;-73
2022/08/09 10:35:04;;;;;;;3.72;1.55;;;;;;;30.54;37.13;102893.25;4991060;28;20187;-74
2022/08/09 10:37:30;;;;;;;4.35;1.40;;;;;;;30.33;37.06;102887.75;4990638;28;20270;-74
2022/08/09 10:39:57;;;;;;;2.67;1.40;;;;;;;30.01;37.56;102888.63;4991124;28;20657;-71
2022/08/09 10:42:23;;;;;;;1.75;1.20;;;;;;;29.74;38.85;102886.72;4991128;28;20215;-75
2022/08/09 10:44:56;;;;;;;2.45;1.52;;;;;;;30.47;37.30;102877.59;4991200;28;20715;-73
2022/08/09 10:47:40;;;;;;;2.78;1.10;;;;;;;30.51;37.46;102881.91;4989162;28;20246;-75
2022/08/09 10:50:21;;;;;;;3.22;1.40;;;;;;;30.66;36.17;102884.91;4990744;28;20645;-74
2022/08/09 10:53:03;;;;;;;2.20;1.10;;;;;;;30.71;37.42;102876.88;4990665;28;20207;-73
2022/08/09 10:55:30;;;;;;;2.60;1.33;;;;;;;30.60;36.33;102881.56;4990716;28;20642;-71
2022/08/09 10:57:56;;;;;;;2.00;0.98;;;;;;;30.58;36.82;102883.41;4990624;28;20188;-72
2022/08/09 11:00:41;;;;;;;4.00;1.30;;;;;;;30.25;37.27;102882.66;4990494;28;20657;-73
2022/08/09 11:03:24;;;;;;;1.70;1.20;;;;;;;29.79;37.63;102883.06;4996219;28;20269;-72
2022/08/09 11:06:14;;;;;;;3.05;1.20;;;;;;;30.02;38.28;102880.66;4991124;28;20934;-74
2022/08/09 11:08:42;;;;;;;2.25;1.00;;;;;;;29.75;37.26;102884.06;4990449;28;20529;-72
2022/08/09 11:11:08;;;;;;;3.97;1.20;;;;;;;30.39;38.22;102883.13;4990753;28;20187;-73
2022/08/09 11:13:33;;;;;;;2.20;1.20;;;;;;;30.74;37.29;102871.50;4990310;28;20383;-73
2022/08/09 11:16:35;;;;;;;1.95;1.27;;;;;;;31.21;35.21;102876.09;4992241;28;20226;-74
2022/08/09 11:19:00;;;;;;;3.30;1.30;;;;;;;31.26;34.72;102868.88;4990120;28;20203;-74
2022/08/09 11:21:59;;;;;;;2.65;1.20;;;;;;;31.03;35.25;102868.75;4990096;28;20677;-72
2022/08/09 11:24:24;;;;;;;2.15;1.13;;;;;;;31.20;36.58;102861.09;4977835;28;20210;-74
2022/08/09 11:26:50;;;;;;;2.70;1.25;;;;;;;30.78;35.72;102865.16;4990248;28;20183;-74
2022/08/09 11:29:53;;;;;;;2.47;1.08;;;;;;;30.67;36.83;102864.59;4988227;28;20191;-69
2022/08/09 11:32:41;;;;;;;2.90;1.10;;;;;;;30.82;36.35;102866.78;4990124;28;20204;-71